Time;durP1;ratioP1;P1;durP2;ratioP2;P2;SDS_P1;SDS_P2;PMS_P1;PMS_P2;Temp;Humidity;BMP_temperature;BMP_pressure;BME280_temperature;BME280_humidity;BME280_pressure;Samples;Min_cycle;Max_cycle;Signal;HPM_P1;HPM_P2
2022/01/27 00:02:38;;;;;;;20.88;17.02;;;;;;;20.35;26.45;99123.05;1792072;78;21020;-61
2022/01/27 00:05:03;;;;;;;18.42;16.32;;;;;;;20.44;26.33;99121.58;1787826;79;21194;-61
2022/01/27 00:07:17;;;;;;;19.12;15.48;;;;;;;20.50;26.09;99119.80;1793927;78;21417;-61
2022/01/27 00:10:07;;;;;;;20.72;16.07;;;;;;;20.66;25.82;99114.44;1793614;78;21011;-63
2022/01/27 00:12:19;;;;;;;17.57;14.70;;;;;;;20.52;25.94;99109.59;1783566;78;20939;-60
2022/01/27 00:14:53;;;;;;;19.20;14.65;;;;;;;20.48;25.97;99104.37;1795333;78;20922;-61
2022/01/27 00:17:16;;;;;;;16.82;14.90;;;;;;;20.49;26.01;99102.76;1795307;78;21147;-61
2022/01/27 00:19:42;;;;;;;16.52;13.88;;;;;;;20.47;25.96;99105.42;1789692;78;20986;-60
2022/01/27 00:22:10;;;;;;;16.65;13.93;;;;;;;20.40;26.02;99103.41;1787139;78;20973;-60
2022/01/27 00:24:37;;;;;;;19.17;15.05;;;;;;;20.30;26.14;99095.95;1794426;78;21485;-61
2022/01/27 00:27:04;;;;;;;19.35;15.13;;;;;;;20.40;25.95;99097.48;1796493;78;20990;-61
2022/01/27 00:29:31;;;;;;;22.55;16.85;;;;;;;20.33;25.87;99092.77;1788383;78;21115;-61
2022/01/27 00:31:57;;;;;;;25.60;17.85;;;;;;;20.16;26.07;99089.98;1789567;78;21401;-61
2022/01/27 00:34:23;;;;;;;22.70;16.27;;;;;;;20.01;26.30;99098.31;1795398;80;20984;-60
2022/01/27 00:36:50;;;;;;;20.97;16.10;;;;;;;20.05;26.28;99092.73;1786656;78;21980;-61
2022/01/27 00:39:16;;;;;;;19.67;16.27;;;;;;;20.10;26.23;99092.84;1786680;78;21028;-60
2022/01/27 00:41:42;;;;;;;18.60;15.05;;;;;;;20.08;26.20;99091.70;1796122;78;21145;-61
2022/01/27 00:44:09;;;;;;;20.17;15.78;;;;;;;20.08;26.28;99086.83;1796187;78;21077;-61
2022/01/27 00:46:36;;;;;;;17.07;14.78;;;;;;;20.11;26.27;99091.23;1794670;78;21020;-61
2022/01/27 00:49:03;;;;;;;16.15;13.93;;;;;;;20.11;26.26;99089.05;1788609;80;21646;-60
2022/01/27 00:51:35;;;;;;;15.38;13.75;;;;;;;20.11;26.29;99085.01;1779179;79;20872;-61
2022/01/27 00:54:13;;;;;;;16.52;14.65;;;;;;;20.22;26.24;99080.92;1761754;79;21140;-61
2022/01/27 00:56:53;;;;;;;16.57;13.72;;;;;;;20.36;26.10;99083.36;1766657;79;20976;-61
2022/01/27 00:59:26;;;;;;;18.50;15.95;;;;;;;20.37;26.06;99085.80;1773399;79;21485;-61
2022/01/27 01:01:53;;;;;;;14.70;13.18;;;;;;;20.43;26.01;99079.44;1771129;79;20928;-61
2022/01/27 01:04:13;;;;;;;15.43;13.30;;;;;;;20.47;26.01;99081.10;1768928;79;20976;-61
2022/01/27 01:06:44;;;;;;;15.45;13.00;;;;;;;20.49;26.00;99077.09;1767030;79;21140;-61
2022/01/27 01:10:01;;;;;;;15.50;13.90;;;;;;;20.46;25.97;99074.08;1767169;79;20936;-61
2022/01/27 01:30:21;;;;;;;14.53;12.35;;;;;;;20.79;25.90;99057.88;1774634;79;20900;-62
2022/01/27 01:35:10;;;;;;;13.90;12.33;;;;;;;20.78;25.84;99057.05;1773233;81;20903;-60
2022/01/27 01:37:39;;;;;;;13.20;11.85;;;;;;;20.84;25.87;99053.91;1773610;79;20907;-61
2022/01/27 01:40:11;;;;;;;13.93;12.13;;;;;;;20.94;25.78;99050.83;1772781;81;20888;-60
2022/01/27 01:42:38;;;;;;;14.40;12.23;;;;;;;20.99;25.71;99043.31;1766231;79;21383;-61
2022/01/27 01:45:08;;;;;;;13.13;10.82;;;;;;;20.98;25.75;99046.28;1774182;79;21157;-60
2022/01/27 01:47:35;;;;;;;13.18;10.60;;;;;;;21.01;25.81;99045.79;1773823;79;20872;-63
2022/01/27 01:50:01;;;;;;;12.35;10.45;;;;;;;21.07;25.77;99044.28;1773423;79;20980;-62
2022/01/27 01:52:28;;;;;;;12.73;10.08;;;;;;;21.10;25.72;99039.73;1787905;78;20852;-60
2022/01/27 01:54:54;;;;;;;11.60;9.50;;;;;;;21.16;25.69;99025.75;1787695;80;20984;-59
2022/01/27 01:57:21;;;;;;;11.15;9.73;;;;;;;21.18;25.70;99030.38;1787596;79;21100;-61
2022/01/27 01:59:48;;;;;;;10.48;9.15;;;;;;;21.16;25.76;99029.81;1787347;79;21043;-61
2022/01/27 02:02:14;;;;;;;11.35;9.55;;;;;;;21.13;25.84;99029.77;1787791;80;20939;-61
2022/01/27 02:04:42;;;;;;;9.55;8.60;;;;;;;21.13;26.52;99027.07;1788270;78;21050;-60
2022/01/27 02:07:29;;;;;;;9.68;8.68;;;;;;;21.19;26.59;99026.61;1787720;80;20864;-61
2022/01/27 02:18:03;;;;;;;9.80;8.80;;;;;;;21.19;26.22;99016.62;1787794;78;20938;-61
2022/01/27 02:20:31;;;;;;;10.70;9.70;;;;;;;21.19;26.19;99009.03;1776353;78;20866;-61
2022/01/27 02:22:58;;;;;;;10.20;8.83;;;;;;;21.25;26.12;99008.02;1768857;80;21466;-61
2022/01/27 02:25:24;;;;;;;9.55;8.65;;;;;;;21.27;26.01;99000.48;1782647;78;20990;-61
2022/01/27 02:27:55;;;;;;;11.50;9.93;;;;;;;21.32;25.92;99001.91;1788265;78;20969;-61
2022/01/27 02:30:22;;;;;;;10.80;9.30;;;;;;;21.36;25.90;98998.97;1787202;80;20971;-61
2022/01/27 02:32:53;;;;;;;11.38;9.38;;;;;;;21.35;25.83;98994.08;1788845;78;20979;-61
2022/01/27 02:35:22;;;;;;;10.95;9.85;;;;;;;21.35;25.90;99001.41;1777198;78;21786;-60
2022/01/27 02:37:48;;;;;;;10.72;9.63;;;;;;;21.39;25.90;98996.59;1788771;78;21003;-61
2022/01/27 02:40:34;;;;;;;11.53;10.32;;;;;;;21.41;25.83;98992.27;1769242;80;20993;-61
2022/01/27 02:42:58;;;;;;;12.65;10.80;;;;;;;21.43;25.74;98993.65;1757373;80;20860;-60
2022/01/27 02:45:57;;;;;;;13.40;11.35;;;;;;;21.30;25.96;98991.31;1786672;78;21491;-60
2022/01/27 02:48:23;;;;;;;14.28;12.47;;;;;;;21.33;25.89;98992.17;1787316;80;21220;-61
2022/01/27 02:50:49;;;;;;;17.07;13.03;;;;;;;21.35;25.82;98983.27;1783660;79;21665;-60
2022/01/27 02:53:16;;;;;;;16.48;13.28;;;;;;;21.22;25.95;98984.98;1778188;78;20883;-61
2022/01/27 02:55:42;;;;;;;14.78;12.45;;;;;;;21.27;25.92;98991.84;1770031;80;20985;-66
2022/01/27 02:58:10;;;;;;;15.13;13.45;;;;;;;21.31;25.92;98988.08;1790144;79;20911;-61
2022/01/27 03:00:36;;;;;;;14.15;12.40;;;;;;;21.38;25.84;98986.00;1788714;80;21852;-62
2022/01/27 03:03:02;;;;;;;13.98;12.10;;;;;;;21.34;25.88;98989.77;1786107;78;20902;-61
2022/01/27 03:05:29;;;;;;;14.75;12.30;;;;;;;21.40;25.82;98993.35;1790902;78;20915;-61
2022/01/27 03:07:55;;;;;;;15.00;13.48;;;;;;;21.39;25.76;98991.17;1778078;80;20895;-61
2022/01/27 03:10:22;;;;;;;14.80;12.80;;;;;;;21.31;25.80;98992.14;1767838;80;21446;-60
2022/01/27 03:12:49;;;;;;;13.60;12.15;;;;;;;21.26;25.86;98982.61;1740343;80;21139;-60
2022/01/27 03:15:17;;;;;;;14.07;12.10;;;;;;;21.39;25.74;98982.23;1780062;80;20954;-61
2022/01/27 03:17:44;;;;;;;12.28;10.98;;;;;;;21.35;25.81;98982.47;1790578;78;20959;-60
2022/01/27 03:20:11;;;;;;;12.65;10.68;;;;;;;21.30;25.87;98982.41;1790198;78;21030;-60
2022/01/27 03:22:38;;;;;;;11.28;10.18;;;;;;;21.39;25.82;98981.70;1790281;80;20907;-60
2022/01/27 03:25:06;;;;;;;10.98;9.85;;;;;;;21.41;25.79;98983.62;1790962;78;22037;-61
2022/01/27 03:27:33;;;;;;;10.15;9.15;;;;;;;21.32;25.74;98981.61;1777320;79;20963;-62
2022/01/27 03:30:00;;;;;;;11.75;9.78;;;;;;;21.11;25.94;98988.64;1769653;78;20883;-60
2022/01/27 03:32:27;;;;;;;11.80;10.43;;;;;;;21.14;25.94;98998.14;1790293;80;20927;-61
2022/01/27 03:34:54;;;;;;;10.18;9.18;;;;;;;21.14;25.97;98992.20;1789965;80;20946;-61
2022/01/27 03:37:20;;;;;;;10.18;9.23;;;;;;;21.23;25.93;98993.92;1791058;78;21879;-61
2022/01/27 03:39:46;;;;;;;9.83;8.65;;;;;;;21.33;25.77;98995.41;1786030;80;20938;-61
2022/01/27 03:42:13;;;;;;;9.80;8.90;;;;;;;21.32;25.75;98993.27;1781494;78;20946;-60
2022/01/27 03:44:40;;;;;;;10.05;8.80;;;;;;;21.12;25.95;98993.53;1789153;80;21406;-61
2022/01/27 03:47:06;;;;;;;9.83;8.83;;;;;;;21.16;25.98;98989.24;1782142;80;20960;-61
2022/01/27 03:49:33;;;;;;;10.50;8.38;;;;;;;21.40;26.00;98987.94;1775420;80;21147;-60
2022/01/27 03:52:01;;;;;;;10.30;8.88;;;;;;;21.33;26.58;98988.64;1773535;78;20859;-61
2022/01/27 03:54:30;;;;;;;10.05;9.00;;;;;;;21.35;26.83;98994.08;1795221;80;21002;-61
2022/01/27 03:56:58;;;;;;;10.80;9.18;;;;;;;21.38;27.01;98994.11;1783860;80;20879;-61
2022/01/27 03:59:26;;;;;;;9.78;8.75;;;;;;;21.42;27.08;98993.91;1792370;80;20974;-61
2022/01/27 04:01:54;;;;;;;10.93;9.35;;;;;;;21.40;27.26;98996.06;1795807;78;21065;-60
2022/01/27 04:04:21;;;;;;;10.75;9.68;;;;;;;21.41;27.27;98996.33;1796148;78;20887;-61
2022/01/27 04:06:51;;;;;;;10.25;9.13;;;;;;;21.49;27.22;98994.53;1796099;80;21524;-60
2022/01/27 04:09:15;;;;;;;9.95;8.95;;;;;;;20.85;28.01;98994.73;1788516;78;20978;-61
2022/01/27 04:11:42;;;;;;;10.10;9.03;;;;;;;20.60;28.42;98992.97;1782410;78;20995;-60
2022/01/27 04:14:10;;;;;;;10.08;9.05;;;;;;;20.53;28.47;98991.80;1788534;78;21119;-61
2022/01/27 04:16:37;;;;;;;10.03;9.03;;;;;;;20.47;28.39;98995.47;1796539;78;20958;-60
2022/01/27 04:19:04;;;;;;;11.28;10.08;;;;;;;20.44;28.12;98990.55;1790425;80;20982;-61
2022/01/27 04:21:30;;;;;;;11.45;10.25;;;;;;;20.47;27.81;98986.54;1791705;78;20883;-60
2022/01/27 04:23:57;;;;;;;11.45;10.35;;;;;;;20.37;27.76;98985.86;1795962;79;20965;-60
2022/01/27 04:26:31;;;;;;;11.12;9.55;;;;;;;20.35;27.78;98992.56;1796480;78;21126;-61
2022/01/27 04:28:52;;;;;;;12.53;11.22;;;;;;;20.32;27.53;98988.47;1793375;78;21548;-60
2022/01/27 04:31:20;;;;;;;10.85;9.85;;;;;;;20.28;27.56;98985.98;1793937;78;21473;-61
2022/01/27 04:33:46;;;;;;;11.45;10.35;;;;;;;20.31;27.50;98986.30;1790905;78;20940;-60
2022/01/27 04:36:25;;;;;;;11.28;10.18;;;;;;;20.29;27.33;98975.45;1797118;78;21001;-60
2022/01/27 04:38:54;;;;;;;11.55;10.30;;;;;;;20.51;26.98;98976.38;1793632;78;21093;-60
2022/01/27 04:41:25;;;;;;;10.58;9.48;;;;;;;20.14;27.36;98979.22;1790543;78;20934;-60
2022/01/27 04:43:54;;;;;;;10.95;9.75;;;;;;;20.07;27.42;98979.91;1794804;78;20958;-60
2022/01/27 04:46:24;;;;;;;10.72;9.63;;;;;;;20.06;27.50;98980.44;1794985;79;20970;-60
2022/01/27 04:48:48;;;;;;;10.53;9.50;;;;;;;20.12;27.46;98979.47;1795436;78;20997;-60
2022/01/27 04:51:14;;;;;;;10.00;9.05;;;;;;;20.09;27.49;98979.13;1789216;79;21159;-60
2022/01/27 04:53:46;;;;;;;10.55;9.55;;;;;;;20.06;27.50;98985.02;1772990;79;21394;-60
2022/01/27 04:56:13;;;;;;;11.38;10.28;;;;;;;20.09;27.47;98983.18;1773042;80;20840;-60
2022/01/27 04:58:37;;;;;;;11.45;10.35;;;;;;;20.39;27.10;98983.72;1773103;80;21478;-61
2022/01/27 05:01:05;;;;;;;10.00;9.10;;;;;;;20.83;26.55;98976.59;1773370;79;21006;-61
2022/01/27 05:03:41;;;;;;;9.43;8.63;;;;;;;20.98;26.42;98982.21;1774484;79;21196;-60
2022/01/27 05:06:03;;;;;;;9.33;8.43;;;;;;;21.06;26.58;98982.31;1772889;80;21086;-61
2022/01/27 05:08:30;;;;;;;9.78;8.80;;;;;;;21.13;26.50;98989.20;1773714;79;20920;-61
2022/01/27 05:13:51;;;;;;;9.70;8.80;;;;;;;21.26;26.12;98985.31;1773154;81;20864;-60
2022/01/27 05:16:10;;;;;;;9.15;8.25;;;;;;;21.18;26.54;98987.09;1772802;80;21147;-61
2022/01/27 05:18:37;;;;;;;9.13;8.23;;;;;;;21.16;26.97;98984.66;1773646;79;20924;-59
2022/01/27 05:21:03;;;;;;;9.58;8.65;;;;;;;21.15;27.15;98982.18;1774178;79;21559;-60
2022/01/27 05:23:29;;;;;;;9.58;8.68;;;;;;;21.12;27.12;98978.66;1773899;79;20888;-61
2022/01/27 05:25:56;;;;;;;8.28;7.50;;;;;;;21.06;26.85;98983.66;1762181;79;20927;-60
2022/01/27 05:28:23;;;;;;;9.35;8.43;;;;;;;21.07;26.72;98983.97;1767064;79;21134;-60
2022/01/27 05:30:49;;;;;;;10.15;9.15;;;;;;;20.96;26.60;98988.41;1772987;79;20955;-61
2022/01/27 05:33:16;;;;;;;11.40;9.68;;;;;;;20.89;26.69;98987.22;1773514;81;32516;-60
2022/01/27 05:35:45;;;;;;;9.88;8.88;;;;;;;20.87;26.65;98983.95;1777813;79;21436;-60
2022/01/27 05:38:15;;;;;;;9.60;8.58;;;;;;;20.85;26.65;98987.44;1784457;79;20940;-60
2022/01/27 05:40:43;;;;;;;10.95;9.85;;;;;;;20.86;26.71;98984.18;1774417;79;21208;-61
2022/01/27 05:43:10;;;;;;;8.85;7.95;;;;;;;20.90;26.61;98986.69;1773877;79;20833;-60
2022/01/27 05:45:36;;;;;;;9.35;8.43;;;;;;;20.89;26.55;98986.39;1774465;79;20974;-60
2022/01/27 05:48:04;;;;;;;10.13;9.13;;;;;;;20.91;26.51;98989.13;1773396;79;21023;-61
2022/01/27 05:50:31;;;;;;;10.23;9.20;;;;;;;21.01;26.24;98988.48;1773893;79;21362;-59
2022/01/27 05:52:57;;;;;;;12.53;11.25;;;;;;;20.90;26.51;98987.52;1762292;79;21449;-61
2022/01/27 05:55:23;;;;;;;11.38;10.32;;;;;;;20.88;26.50;98978.02;1769618;81;20974;-61
2022/01/27 05:57:51;;;;;;;9.80;8.90;;;;;;;20.91;26.45;98977.49;1748029;79;21494;-61
2022/01/27 06:00:19;;;;;;;11.00;9.60;;;;;;;20.89;26.38;98984.52;1752066;79;21063;-62
2022/01/27 06:02:45;;;;;;;11.12;10.03;;;;;;;20.92;26.33;98979.97;1768277;79;20985;-61
2022/01/27 06:05:12;;;;;;;11.03;9.93;;;;;;;20.90;26.37;98986.16;1763859;79;22036;-61
2022/01/27 06:07:40;;;;;;;11.63;10.43;;;;;;;20.84;26.44;98985.80;1773736;79;21042;-62
2022/01/27 06:10:07;;;;;;;10.68;9.48;;;;;;;20.87;26.38;98977.19;1772610;79;20869;-61
2022/01/27 06:12:34;;;;;;;10.38;9.13;;;;;;;20.92;26.30;98981.31;1765891;79;21045;-61
2022/01/27 06:15:01;;;;;;;9.30;8.40;;;;;;;20.93;26.24;98980.23;1767983;79;20915;-61
2022/01/27 06:17:29;;;;;;;9.88;9.00;;;;;;;20.97;26.21;98981.09;1774476;79;21098;-61
2022/01/27 06:19:57;;;;;;;9.40;8.50;;;;;;;21.01;26.48;98984.42;1761253;81;20966;-64
2022/01/27 06:22:24;;;;;;;8.90;8.08;;;;;;;21.01;26.27;98987.13;1769610;79;21048;-62
2022/01/27 06:24:50;;;;;;;7.83;7.05;;;;;;;21.02;26.22;98981.98;1773742;79;21036;-62
2022/01/27 06:27:16;;;;;;;7.65;6.85;;;;;;;21.02;26.11;98988.75;1773514;81;20939;-61
2022/01/27 06:29:43;;;;;;;8.60;7.72;;;;;;;20.94;26.28;98981.05;1773220;81;21429;-62
2022/01/27 06:32:09;;;;;;;7.40;6.72;;;;;;;20.17;27.25;98986.31;1774539;79;20911;-61
2022/01/27 06:34:37;;;;;;;9.38;8.48;;;;;;;20.14;27.71;98990.02;1772073;81;20987;-62
2022/01/27 06:37:04;;;;;;;9.00;8.20;;;;;;;20.10;27.91;98985.63;1767990;79;20967;-60
2022/01/27 06:39:31;;;;;;;7.97;7.28;;;;;;;20.11;27.93;98990.50;1764525;79;20891;-65
2022/01/27 06:41:57;;;;;;;8.20;7.37;;;;;;;20.10;27.77;98990.23;1765729;79;21141;-60
2022/01/27 06:44:23;;;;;;;8.23;7.42;;;;;;;20.05;27.66;98986.09;1774285;79;21295;-60
2022/01/27 06:46:50;;;;;;;7.62;6.78;;;;;;;20.04;27.57;98988.49;1773297;81;21010;-61
2022/01/27 06:49:17;;;;;;;7.62;6.92;;;;;;;20.02;27.66;98995.47;1773580;79;20900;-61
2022/01/27 06:51:45;;;;;;;7.30;6.60;;;;;;;20.06;27.66;98983.14;1773610;79;21438;-60
2022/01/27 06:54:12;;;;;;;7.70;6.95;;;;;;;20.14;27.79;98981.91;1791221;78;21062;-61
2022/01/27 06:56:39;;;;;;;8.15;7.35;;;;;;;20.13;28.03;98985.67;1794662;80;21469;-59
2022/01/27 06:59:06;;;;;;;9.68;7.78;;;;;;;20.13;28.00;98979.74;1787288;78;21488;-60
2022/01/27 07:01:32;;;;;;;8.93;8.05;;;;;;;20.17;27.78;98981.44;1772029;79;20982;-60
2022/01/27 07:03:58;;;;;;;7.87;7.08;;;;;;;20.13;27.77;98989.72;1771239;78;20929;-60
2022/01/27 07:06:25;;;;;;;8.80;7.72;;;;;;;20.11;27.71;98989.97;1779399;79;21211;-59
2022/01/27 07:08:52;;;;;;;8.45;7.60;;;;;;;20.16;27.67;98984.66;1771302;79;21574;-61
2022/01/27 07:11:18;;;;;;;8.05;7.00;;;;;;;20.23;27.53;98978.59;1737546;80;20931;-60
2022/01/27 07:13:45;;;;;;;8.60;7.42;;;;;;;20.23;27.52;98977.77;1774493;78;20994;-61
2022/01/27 07:16:11;;;;;;;8.10;7.30;;;;;;;20.22;27.46;98982.88;1767017;78;21412;-60
2022/01/27 07:18:38;;;;;;;8.38;7.58;;;;;;;20.25;27.40;98985.13;1767239;79;21150;-62
2022/01/27 07:21:04;;;;;;;9.08;8.28;;;;;;;20.22;27.37;98982.88;1766869;78;20978;-60
2022/01/27 07:23:31;;;;;;;9.43;8.48;;;;;;;20.19;27.36;98973.90;1767898;79;20938;-59
2022/01/27 07:25:57;;;;;;;9.05;8.18;;;;;;;20.21;27.41;98977.17;1776888;79;20946;-59
2022/01/27 07:28:24;;;;;;;10.25;8.35;;;;;;;20.18;27.62;98982.53;1795924;80;20997;-61
2022/01/27 07:30:50;;;;;;;9.83;8.83;;;;;;;20.16;27.60;98972.51;1790586;78;21901;-61
2022/01/27 07:33:16;;;;;;;9.80;8.73;;;;;;;20.08;27.71;98974.25;1789739;79;21041;-64
2022/01/27 07:35:43;;;;;;;9.13;8.23;;;;;;;20.11;27.73;98973.77;1794850;78;20993;-62
2022/01/27 07:38:10;;;;;;;9.68;8.48;;;;;;;20.12;27.68;98971.90;1795695;78;20895;-59
2022/01/27 07:40:37;;;;;;;9.55;8.65;;;;;;;20.17;27.60;98969.28;1797265;78;20969;-61
2022/01/27 07:43:04;;;;;;;9.93;8.90;;;;;;;20.19;27.57;98965.80;1795898;79;21480;-60
2022/01/27 07:45:31;;;;;;;9.75;8.75;;;;;;;20.21;27.50;98962.31;1795831;80;20861;-60
2022/01/27 07:47:57;;;;;;;10.48;8.63;;;;;;;20.24;27.44;98965.91;1794099;78;20891;-60
2022/01/27 07:50:29;;;;;;;9.88;8.38;;;;;;;20.33;27.39;98966.60;1790318;78;21014;-61
2022/01/27 07:52:52;;;;;;;10.38;8.98;;;;;;;20.41;27.36;98963.23;1787831;79;20991;-59
2022/01/27 07:55:19;;;;;;;9.95;8.95;;;;;;;20.49;27.24;98966.31;1773476;79;21824;-61
2022/01/27 07:57:45;;;;;;;10.18;9.18;;;;;;;20.56;27.14;98961.59;1773051;79;20963;-63
2022/01/27 08:00:14;;;;;;;9.73;8.83;;;;;;;20.57;27.11;98964.55;1774874;79;20880;-62
2022/01/27 08:02:42;;;;;;;10.78;9.53;;;;;;;20.55;27.16;98972.09;1773794;79;21003;-61
2022/01/27 08:05:09;;;;;;;12.68;10.40;;;;;;;20.64;27.08;98972.51;1773251;79;20938;-61
2022/01/27 08:07:37;;;;;;;12.47;11.18;;;;;;;20.67;27.04;98972.84;1773083;79;20980;-63
2022/01/27 08:10:05;;;;;;;11.95;10.45;;;;;;;20.67;27.02;98970.14;1774652;79;21091;-62
2022/01/27 08:12:31;;;;;;;11.00;9.88;;;;;;;20.66;27.11;98972.55;1773841;79;20871;-61
2022/01/27 08:14:58;;;;;;;11.80;10.60;;;;;;;20.72;27.15;98970.74;1763977;79;21017;-62
2022/01/27 08:17:24;;;;;;;12.30;10.58;;;;;;;20.72;27.06;98972.09;1748523;79;21532;-61
2022/01/27 08:19:51;;;;;;;14.50;12.82;;;;;;;20.71;27.01;98971.80;1752507;79;21145;-61
2022/01/27 08:22:17;;;;;;;17.35;14.95;;;;;;;20.74;26.99;98977.53;1749020;79;20976;-61
2022/01/27 08:24:44;;;;;;;14.05;12.55;;;;;;;20.74;26.86;98975.36;1750594;79;21009;-61
2022/01/27 08:27:13;;;;;;;13.53;12.18;;;;;;;20.77;26.83;98975.70;1748359;79;22003;-60
2022/01/27 08:29:43;;;;;;;12.82;11.38;;;;;;;20.87;26.75;98981.25;1752103;79;20970;-61
2022/01/27 08:32:10;;;;;;;12.70;11.40;;;;;;;20.94;26.69;98971.06;1773842;79;21164;-61
2022/01/27 08:34:37;;;;;;;13.62;12.30;;;;;;;20.97;26.58;98967.05;1774574;79;20915;-61
2022/01/27 08:37:09;;;;;;;14.20;12.73;;;;;;;20.96;26.57;98976.77;1774802;79;20931;-61
2022/01/27 08:39:36;;;;;;;14.05;12.58;;;;;;;20.94;26.57;98975.64;1768962;79;20979;-60
2022/01/27 08:42:05;;;;;;;14.03;12.53;;;;;;;20.90;26.64;98972.64;1773347;81;20876;-61
2022/01/27 08:44:31;;;;;;;13.38;11.97;;;;;;;20.90;26.51;98975.34;1765780;79;21166;-62
2022/01/27 08:46:57;;;;;;;12.70;11.35;;;;;;;20.88;26.46;98978.81;1772713;79;20904;-60
2022/01/27 08:49:26;;;;;;;15.05;11.80;;;;;;;20.80;26.40;98979.26;1748399;79;21010;-62
2022/01/27 08:51:53;;;;;;;15.15;10.63;;;;;;;20.80;26.48;98971.67;1751192;79;20943;-59
2022/01/27 08:54:20;;;;;;;13.65;11.63;;;;;;;20.82;26.50;98977.64;1770838;79;20942;-66
2022/01/27 08:56:46;;;;;;;14.50;12.65;;;;;;;20.86;26.48;98973.36;1791719;78;21137;-62
2022/01/27 08:59:14;;;;;;;12.90;11.63;;;;;;;20.95;26.42;98974.59;1790595;80;21397;-62
2022/01/27 09:01:40;;;;;;;13.95;11.70;;;;;;;20.98;26.31;98977.33;1790742;78;20965;-63
2022/01/27 09:04:07;;;;;;;12.20;11.00;;;;;;;20.97;26.34;98972.45;1783386;79;21028;-62
2022/01/27 09:06:34;;;;;;;12.05;10.85;;;;;;;21.04;26.23;98969.02;1777906;78;21005;-63
2022/01/27 09:09:01;;;;;;;13.10;11.35;;;;;;;21.09;26.10;98967.77;1790850;78;21145;-65
2022/01/27 09:11:31;;;;;;;14.23;10.50;;;;;;;21.17;25.92;98957.08;1791376;78;20974;-64
2022/01/27 09:14:02;;;;;;;13.13;11.43;;;;;;;21.27;25.84;98955.33;1780756;78;20915;-65
2022/01/27 09:16:29;;;;;;;17.15;14.65;;;;;;;21.41;25.76;98953.03;1790188;78;20923;-63
2022/01/27 09:18:57;;;;;;;20.00;15.98;;;;;;;21.42;25.81;98956.03;1749481;80;21535;-65
2022/01/27 09:21:32;;;;;;;16.10;13.32;;;;;;;21.46;25.77;98949.86;1711477;82;21185;-63
2022/01/27 09:23:54;;;;;;;14.20;12.13;;;;;;;21.57;25.71;98954.85;1736848;81;21019;-64
2022/01/27 09:26:50;;;;;;;14.35;11.97;;;;;;;21.67;25.59;98952.25;1747086;81;21039;-65
2022/01/27 09:29:10;;;;;;;12.35;10.82;;;;;;;21.58;25.72;98953.79;1745972;81;20951;-63
2022/01/27 09:31:36;;;;;;;10.90;9.48;;;;;;;21.56;25.66;98950.53;1747669;81;20939;-62
2022/01/27 09:34:04;;;;;;;12.78;10.82;;;;;;;21.50;25.56;98954.23;1746459;81;21157;-61
2022/01/27 09:36:31;;;;;;;12.28;10.38;;;;;;;21.42;25.52;98944.68;1746752;81;20947;-64
2022/01/27 09:38:58;;;;;;;10.82;9.38;;;;;;;21.30;25.53;98950.73;1746962;81;20959;-64
2022/01/27 09:41:27;;;;;;;11.48;10.35;;;;;;;21.23;25.64;98949.30;1747090;81;20994;-67
2022/01/27 09:43:56;;;;;;;10.70;9.58;;;;;;;21.12;25.75;98944.84;1746700;81;20978;-64
2022/01/27 09:46:24;;;;;;;10.95;9.85;;;;;;;21.05;25.79;98942.81;1747102;81;21148;-62
2022/01/27 09:48:52;;;;;;;11.48;10.28;;;;;;;21.03;25.90;98941.72;1747419;81;20979;-63
2022/01/27 09:53:55;;;;;;;12.43;10.72;;;;;;;21.05;25.94;98937.40;1748862;81;21049;-63
2022/01/27 09:56:22;;;;;;;12.80;10.90;;;;;;;21.13;25.92;98941.87;1718599;83;20914;-73
2022/01/27 09:58:49;;;;;;;13.35;11.20;;;;;;;21.17;25.84;98940.85;1784975;78;21149;-63
2022/01/27 10:01:17;;;;;;;13.80;12.28;;;;;;;21.16;25.79;98941.91;1784472;79;20986;-62
2022/01/27 10:04:02;;;;;;;16.23;12.90;;;;;;;21.08;25.89;98938.28;1785044;78;20911;-61
2022/01/27 10:06:31;;;;;;;17.12;13.78;;;;;;;21.12;25.86;98932.67;1779970;78;20887;-62
2022/01/27 10:09:15;;;;;;;13.75;12.10;;;;;;;21.05;25.88;98928.76;1772581;80;20919;-63
2022/01/27 10:11:43;;;;;;;12.50;10.65;;;;;;;21.02;25.89;98929.78;1777651;78;21838;-65
2022/01/27 10:14:24;;;;;;;11.80;10.60;;;;;;;21.14;25.82;98923.24;1758204;78;20940;-63
2022/01/27 10:16:54;;;;;;;11.97;10.38;;;;;;;21.06;25.94;98932.28;1759958;78;20946;-63
2022/01/27 10:19:23;;;;;;;11.90;9.60;;;;;;;20.96;26.09;98925.39;1757429;78;20879;-64
2022/01/27 10:21:50;;;;;;;11.05;9.50;;;;;;;20.82;26.06;98928.46;1760571;78;21016;-63
2022/01/27 10:24:32;;;;;;;10.98;9.88;;;;;;;20.82;26.01;98927.64;1757504;78;21182;-62
2022/01/27 10:27:34;;;;;;;11.00;9.88;;;;;;;20.80;26.20;98921.14;1756075;79;20999;-65
2022/01/27 10:32:46;;;;;;;13.35;9.70;;;;;;;20.79;26.38;98905.16;1756781;79;20939;-62
2022/01/27 10:35:15;;;;;;;13.30;9.40;;;;;;;20.76;26.27;98898.89;1757617;78;20922;-62
2022/01/27 10:38:08;;;;;;;13.15;9.68;;;;;;;20.68;26.20;98911.48;1758695;79;21346;-63
2022/01/27 10:40:43;;;;;;;12.68;10.35;;;;;;;20.58;26.34;98900.53;1759118;78;20899;-63
2022/01/27 10:43:19;;;;;;;11.18;9.75;;;;;;;20.51;26.39;98903.95;1756597;78;20942;-63
2022/01/27 10:46:10;;;;;;;14.73;10.95;;;;;;;20.45;26.31;98913.86;1759403;78;21033;-63
2022/01/27 10:48:45;;;;;;;12.88;10.23;;;;;;;20.36;26.37;98911.30;1758949;78;20990;-64
2022/01/27 10:51:18;;;;;;;;;;;;;;;20.28;26.42;98901.70;1762442;78;21163;-63
2022/01/27 10:54:04;;;;;;;14.15;10.98;;;;;;;20.29;26.45;98898.47;1754452;79;20093;-63
2022/01/27 10:56:37;;;;;;;12.40;10.00;;;;;;;20.29;26.40;98889.84;1747436;79;21374;-62
2022/01/27 10:59:08;;;;;;;11.75;9.90;;;;;;;20.30;26.32;98886.62;1746015;79;21082;-63
2022/01/27 11:01:38;;;;;;;13.65;11.57;;;;;;;20.21;26.37;98884.83;1758006;79;21011;-64
2022/01/27 11:04:06;;;;;;;11.83;9.85;;;;;;;20.26;26.35;98880.87;1773161;81;21022;-62
2022/01/27 11:06:34;;;;;;;11.93;9.95;;;;;;;20.27;26.40;98878.48;1774345;79;20848;-62
2022/01/27 11:09:08;;;;;;;13.90;10.08;;;;;;;20.33;26.26;98878.02;1773163;81;20923;-63
2022/01/27 11:11:33;;;;;;;11.22;8.80;;;;;;;20.34;26.25;98879.64;1768440;79;20919;-64
2022/01/27 11:14:00;;;;;;;12.00;10.15;;;;;;;20.31;26.28;98878.25;1765851;79;20958;-63
2022/01/27 11:16:34;;;;;;;11.08;9.78;;;;;;;20.31;26.26;98873.37;1773400;81;21813;-62
2022/01/27 11:19:12;;;;;;;9.93;8.93;;;;;;;20.35;26.15;98869.14;1761105;79;20979;-61
2022/01/27 11:21:37;;;;;;;9.33;8.33;;;;;;;20.31;26.21;98866.63;1771982;80;20991;-62
2022/01/27 11:24:04;;;;;;;10.82;9.18;;;;;;;20.26;26.11;98861.98;1772323;79;20971;-61
2022/01/27 11:26:28;;;;;;;10.63;9.23;;;;;;;20.22;26.14;98870.80;1773053;80;21505;-61
2022/01/27 11:28:56;;;;;;;9.55;8.53;;;;;;;20.18;26.15;98871.81;1772090;79;21444;-62
2022/01/27 11:31:56;;;;;;;9.83;8.88;;;;;;;20.22;26.15;98872.14;1736948;82;20876;-62
2022/01/27 11:34:23;;;;;;;9.75;8.75;;;;;;;20.21;26.12;98875.38;1713722;81;21443;-62
2022/01/27 11:37:03;;;;;;;10.35;8.85;;;;;;;20.23;26.11;98876.49;1669425;82;20951;-62
2022/01/27 11:39:54;;;;;;;9.25;8.35;;;;;;;20.13;26.02;98870.91;1715947;81;21054;-63
2022/01/27 11:42:38;;;;;;;9.43;7.80;;;;;;;20.13;26.00;98862.80;1718810;81;21163;-66
2022/01/27 11:45:31;;;;;;;10.18;9.15;;;;;;;20.21;25.87;98853.77;1677060;82;21020;-64
2022/01/27 11:48:07;;;;;;;11.83;7.60;;;;;;;20.10;25.96;98860.63;1728037;82;21017;-63
2022/01/27 11:50:35;;;;;;;9.40;7.60;;;;;;;20.09;26.04;98866.55;1728093;82;20924;-61
2022/01/27 11:53:08;;;;;;;10.30;8.55;;;;;;;20.25;26.36;98856.84;1724677;83;20897;-64
2022/01/27 11:55:43;;;;;;;11.83;9.05;;;;;;;20.31;26.28;98856.65;1748786;82;21092;-61
2022/01/27 11:58:18;;;;;;;9.43;7.75;;;;;;;20.45;26.35;98861.17;1750442;80;20950;-69
2022/01/27 12:01:17;;;;;;;9.53;8.53;;;;;;;20.46;26.11;98852.55;1748807;80;21005;-65
2022/01/27 12:04:13;;;;;;;8.83;7.20;;;;;;;20.43;26.18;98851.16;1744796;80;20934;-62
2022/01/27 12:06:49;;;;;;;7.80;7.00;;;;;;;20.44;25.96;98850.08;1750807;81;20886;-62
2022/01/27 12:09:25;;;;;;;8.78;7.03;;;;;;;20.41;26.05;98856.52;1736270;80;22279;-62
2022/01/27 12:12:06;;;;;;;8.65;7.75;;;;;;;20.39;25.93;98845.95;1751131;80;20966;-62